Time;durP1;ratioP1;P1;durP2;ratioP2;P2;SDS_P1;SDS_P2;PMS_P1;PMS_P2;Temp;Humidity;BMP_temperature;BMP_pressure;BME280_temperature;BME280_humidity;BME280_pressure;Samples;Min_cycle;Max_cycle;Signal;HPM_P1;HPM_P2
2022/11/07 00:02:14;;;;;;;10.25;5.70;;;10.30;99.90;;;;;;4969745;28;20125;-73
2022/11/07 00:04:40;;;;;;;9.98;5.97;;;10.40;99.90;;;;;;4973139;28;20050;-72
2022/11/07 00:07:07;;;;;;;9.93;5.55;;;10.40;99.90;;;;;;4975018;28;20074;-72
2022/11/07 00:09:33;;;;;;;10.82;5.55;;;10.40;99.90;;;;;;4945697;28;20050;-72
2022/11/07 00:11:59;;;;;;;11.63;5.22;;;10.40;99.90;;;;;;4973863;28;20055;-72
2022/11/07 00:14:25;;;;;;;9.38;5.30;;;10.40;99.90;;;;;;4973318;28;20117;-72
2022/11/07 00:16:50;;;;;;;10.57;5.22;;;10.40;99.90;;;;;;4952529;29;20055;-72
2022/11/07 00:19:19;;;;;;;12.02;5.30;;;10.30;99.90;;;;;;4954816;28;20079;-72
2022/11/07 00:21:45;;;;;;;10.25;5.40;;;10.30;99.90;;;;;;4954146;28;20045;-73
2022/11/07 00:24:12;;;;;;;10.32;5.10;;;10.30;99.90;;;;;;4938379;29;20052;-72
2022/11/07 00:26:38;;;;;;;9.63;5.50;;;10.40;99.90;;;;;;4953921;28;20058;-71
2022/11/07 00:29:05;;;;;;;12.48;5.53;;;10.40;99.90;;;;;;4946318;28;20052;-72
2022/11/07 00:31:31;;;;;;;10.25;5.00;;;10.40;99.90;;;;;;4948508;28;20051;-72
2022/11/07 00:33:57;;;;;;;12.02;5.30;;;10.50;99.90;;;;;;4953590;28;20496;-71
2022/11/07 00:36:27;;;;;;;13.88;5.60;;;10.50;99.90;;;;;;4954134;28;20376;-72
2022/11/07 00:38:53;;;;;;;9.85;4.93;;;10.50;99.90;;;;;;4953631;28;20058;-72
2022/11/07 00:41:21;;;;;;;11.18;5.07;;;10.60;99.90;;;;;;4954242;29;20142;-72
2022/11/07 00:43:47;;;;;;;9.70;5.05;;;10.60;99.90;;;;;;4954834;28;20099;-73
2022/11/07 00:46:15;;;;;;;11.25;4.80;;;10.70;99.90;;;;;;4954728;28;20589;-72
2022/11/07 00:48:41;;;;;;;9.95;5.00;;;10.70;99.90;;;;;;4953046;28;20062;-72
2022/11/07 00:51:18;;;;;;;12.32;4.97;;;10.70;99.90;;;;;;4954190;28;20051;-71
2022/11/07 00:53:45;;;;;;;11.63;4.80;;;10.80;99.90;;;;;;4966625;28;20513;-72
2022/11/07 00:56:14;;;;;;;10.82;4.75;;;10.80;99.90;;;;;;4953905;28;20051;-72
2022/11/07 00:58:41;;;;;;;11.48;4.60;;;10.80;99.90;;;;;;4953880;28;20055;-72
2022/11/07 01:01:13;;;;;;;11.52;4.85;;;10.80;99.90;;;;;;4937474;29;20047;-72
2022/11/07 01:06:25;;;;;;;10.90;4.65;;;10.80;99.90;;;;;;4954919;28;20077;-72
2022/11/07 01:08:53;;;;;;;12.38;4.88;;;10.80;99.90;;;;;;4953647;28;20055;-73
2022/11/07 01:11:20;;;;;;;10.40;4.97;;;10.80;99.90;;;;;;4937897;29;20058;-73
2022/11/07 01:13:46;;;;;;;10.20;4.78;;;10.80;99.90;;;;;;4953230;28;20566;-73
2022/11/07 01:16:11;;;;;;;12.90;4.68;;;10.70;99.90;;;;;;4953066;28;20141;-74
2022/11/07 01:18:37;;;;;;;10.38;4.80;;;10.70;99.90;;;;;;4946689;28;20120;-72
2022/11/07 01:21:07;;;;;;;12.02;4.45;;;10.70;99.90;;;;;;4946343;28;20388;-72
2022/11/07 01:23:34;;;;;;;12.82;4.40;;;10.70;99.90;;;;;;4953048;28;20051;-74
2022/11/07 01:26:07;;;;;;;16.83;5.18;;;10.70;99.90;;;;;;4953634;28;20091;-73
2022/11/07 01:28:34;;;;;;;11.70;4.53;;;10.60;99.90;;;;;;4953236;28;20055;-73
2022/11/07 01:31:09;;;;;;;12.38;4.43;;;10.60;99.90;;;;;;4953284;28;20071;-72
2022/11/07 01:33:36;;;;;;;12.93;4.45;;;10.60;99.90;;;;;;4952471;28;20043;-72
2022/11/07 01:36:14;;;;;;;9.55;3.78;;;10.50;99.90;;;;;;4953505;28;20051;-72
2022/11/07 01:38:42;;;;;;;12.10;4.72;;;10.50;99.90;;;;;;4953419;28;20047;-73
2022/11/07 01:41:23;;;;;;;11.77;4.63;;;10.50;99.90;;;;;;4955802;28;20054;-73
2022/11/07 01:44:07;;;;;;;12.95;4.70;;;10.50;99.90;;;;;;4956862;28;20044;-74
2022/11/07 01:46:43;;;;;;;12.82;4.70;;;10.50;99.90;;;;;;4957108;28;20089;-73
2022/11/07 01:49:17;;;;;;;12.27;4.68;;;10.50;99.90;;;;;;4955746;28;20130;-72
2022/11/07 01:51:55;;;;;;;11.43;4.50;;;10.50;99.90;;;;;;4956202;28;20087;-73
2022/11/07 01:54:25;;;;;;;11.13;4.80;;;10.50;99.90;;;;;;4966688;28;20484;-73
2022/11/07 01:56:54;;;;;;;13.20;4.43;;;10.60;99.90;;;;;;4950033;28;20051;-72
2022/11/07 01:59:25;;;;;;;9.75;4.25;;;10.60;99.90;;;;;;4969468;28;20045;-73
2022/11/07 02:01:50;;;;;;;11.90;4.90;;;10.70;99.90;;;;;;4958482;28;20105;-73
2022/11/07 02:04:17;;;;;;;12.50;4.50;;;10.70;99.90;;;;;;4958603;28;20495;-72
2022/11/07 02:07:04;;;;;;;10.68;4.32;;;10.70;99.90;;;;;;4958206;28;20118;-72
2022/11/07 02:09:30;;;;;;;11.43;4.30;;;10.80;99.90;;;;;;4957825;28;20420;-73
2022/11/07 02:11:59;;;;;;;11.00;4.25;;;10.80;99.90;;;;;;4940774;29;20047;-73
2022/11/07 02:14:26;;;;;;;9.98;4.15;;;10.80;99.90;;;;;;4955544;28;20062;-74
2022/11/07 02:16:52;;;;;;;11.80;4.38;;;10.80;99.90;;;;;;4954738;28;20065;-73
2022/11/07 02:19:39;;;;;;;11.35;4.10;;;10.80;99.90;;;;;;4955510;28;20051;-73
2022/11/07 02:22:25;;;;;;;11.55;4.15;;;10.90;99.90;;;;;;4956312;28;20051;-73
2022/11/07 02:24:55;;;;;;;12.32;4.20;;;10.90;99.90;;;;;;4957346;28;20134;-73
2022/11/07 02:27:24;;;;;;;12.20;4.18;;;10.90;99.90;;;;;;4940658;29;20051;-73
2022/11/07 02:29:55;;;;;;;11.80;4.15;;;10.90;99.90;;;;;;4941803;28;20058;-72
2022/11/07 02:32:21;;;;;;;11.57;4.47;;;10.90;99.90;;;;;;4955876;28;20054;-73
2022/11/07 02:34:57;;;;;;;11.73;4.10;;;10.90;99.90;;;;;;4955372;28;20054;-72
2022/11/07 02:37:28;;;;;;;12.90;4.10;;;10.90;99.90;;;;;;4940349;29;20101;-74
2022/11/07 02:39:54;;;;;;;13.40;4.40;;;10.90;99.90;;;;;;4955777;28;20047;-72
2022/11/07 02:42:20;;;;;;;13.35;4.45;;;10.90;99.90;;;;;;4942078;28;20059;-73
2022/11/07 02:44:46;;;;;;;10.18;4.22;;;10.90;99.90;;;;;;4956076;28;20047;-73
2022/11/07 02:47:12;;;;;;;11.20;4.15;;;10.90;99.90;;;;;;4939646;29;20046;-72
2022/11/07 02:49:39;;;;;;;13.45;4.50;;;10.90;99.90;;;;;;4954001;28;20472;-73
2022/11/07 02:52:05;;;;;;;13.88;4.57;;;10.90;99.90;;;;;;4954438;28;20141;-73
2022/11/07 02:54:31;;;;;;;12.75;4.60;;;10.90;99.90;;;;;;4954527;28;20086;-72
2022/11/07 02:56:56;;;;;;;14.15;4.50;;;10.90;99.90;;;;;;4947806;28;20055;-73
2022/11/07 02:59:22;;;;;;;11.15;4.22;;;10.90;99.90;;;;;;4949663;28;20494;-73
2022/11/07 03:01:48;;;;;;;11.63;4.60;;;10.90;99.90;;;;;;4945014;28;20051;-73
2022/11/07 03:04:14;;;;;;;13.63;4.35;;;11.00;99.90;;;;;;4954885;28;20048;-72
2022/11/07 03:06:40;;;;;;;15.60;4.63;;;11.00;99.90;;;;;;4943113;28;20091;-72
2022/11/07 03:09:05;;;;;;;13.65;4.50;;;11.00;99.90;;;;;;4953760;28;20087;-73
2022/11/07 03:11:31;;;;;;;11.25;4.35;;;11.00;99.90;;;;;;4923589;29;20047;-73
2022/11/07 03:13:57;;;;;;;12.73;4.78;;;11.00;99.90;;;;;;4941341;28;20051;-72
2022/11/07 03:16:22;;;;;;;14.98;4.80;;;11.00;99.90;;;;;;4955310;28;20055;-72
2022/11/07 03:18:48;;;;;;;12.75;4.95;;;11.10;99.90;;;;;;4937399;28;20051;-72
2022/11/07 03:21:14;;;;;;;13.90;5.13;;;11.00;99.90;;;;;;4942512;28;20106;-72
2022/11/07 03:23:39;;;;;;;14.40;5.20;;;11.00;99.90;;;;;;4954905;28;20057;-71
2022/11/07 03:26:05;;;;;;;12.60;5.15;;;11.00;99.90;;;;;;4955572;28;20062;-71
2022/11/07 03:28:31;;;;;;;14.20;5.30;;;10.90;99.90;;;;;;4955180;28;20065;-71
2022/11/07 03:31:02;;;;;;;11.80;4.80;;;10.90;99.90;;;;;;4941924;28;20056;-71
2022/11/07 03:33:31;;;;;;;12.85;5.10;;;10.90;99.90;;;;;;4945762;28;20054;-71
2022/11/07 03:35:57;;;;;;;13.35;4.80;;;10.90;99.90;;;;;;4950128;28;20063;-71
2022/11/07 03:38:22;;;;;;;15.45;4.85;;;10.80;99.90;;;;;;4938874;29;20134;-72
2022/11/07 03:40:48;;;;;;;11.90;4.53;;;10.80;99.90;;;;;;4954651;28;20055;-71
2022/11/07 03:43:14;;;;;;;14.07;4.93;;;10.80;99.90;;;;;;4954771;28;20050;-71
2022/11/07 03:45:40;;;;;;;10.77;4.50;;;10.70;99.90;;;;;;4955106;28;20048;-71
2022/11/07 03:48:05;;;;;;;14.43;4.65;;;10.70;99.90;;;;;;4938141;28;20055;-71
2022/11/07 03:50:31;;;;;;;12.85;4.60;;;10.70;99.90;;;;;;4955695;28;20178;-71
2022/11/07 03:52:57;;;;;;;12.40;4.55;;;10.70;99.90;;;;;;4954293;28;20062;-71
2022/11/07 03:55:22;;;;;;;14.40;4.72;;;10.60;99.90;;;;;;4954627;28;20490;-72
2022/11/07 03:57:48;;;;;;;14.75;4.40;;;10.60;99.90;;;;;;4955894;28;20448;-72
2022/11/07 04:00:15;;;;;;;11.68;4.60;;;10.60;99.90;;;;;;4936984;29;20403;-72
2022/11/07 04:02:42;;;;;;;10.10;4.28;;;10.60;99.90;;;;;;4954624;28;20051;-71
2022/11/07 04:05:08;;;;;;;16.02;4.78;;;10.70;99.90;;;;;;4951248;28;20447;-72
2022/11/07 04:07:34;;;;;;;13.10;4.47;;;10.60;99.90;;;;;;4945362;28;20156;-71
2022/11/07 04:10:00;;;;;;;11.48;4.75;;;10.70;99.90;;;;;;4931993;28;20094;-72
2022/11/07 04:17:54;;;;;;;13.07;4.50;;;10.70;99.90;;;;;;4944400;28;20094;-74
2022/11/07 04:20:20;;;;;;;12.98;4.30;;;10.70;99.90;;;;;;4949256;28;20050;-72
2022/11/07 04:22:45;;;;;;;12.77;4.50;;;10.80;99.90;;;;;;4954284;28;20439;-72
2022/11/07 04:25:11;;;;;;;17.67;4.50;;;10.80;99.90;;;;;;4947801;28;20061;-72
2022/11/07 04:27:43;;;;;;;10.90;4.28;;;10.80;99.90;;;;;;4943607;28;20178;-71
2022/11/07 04:30:25;;;;;;;10.73;4.07;;;10.80;99.90;;;;;;4953260;28;20055;-72
2022/11/07 04:32:56;;;;;;;13.25;4.80;;;10.80;99.90;;;;;;4953920;28;20047;-74
2022/11/07 04:35:25;;;;;;;13.25;4.50;;;10.80;99.90;;;;;;4941192;29;20125;-72
2022/11/07 04:37:51;;;;;;;12.48;4.32;;;10.80;99.90;;;;;;4953726;28;20166;-72
2022/11/07 04:40:17;;;;;;;12.80;4.38;;;10.80;99.90;;;;;;4953829;28;20138;-72
2022/11/07 04:42:44;;;;;;;15.10;4.43;;;10.80;99.90;;;;;;4953963;28;20055;-73
2022/11/07 04:45:11;;;;;;;12.40;4.45;;;10.80;99.90;;;;;;4953597;28;20051;-72
2022/11/07 04:47:37;;;;;;;14.60;4.63;;;10.80;99.90;;;;;;4954256;28;20238;-72
2022/11/07 04:50:05;;;;;;;12.80;4.43;;;10.80;99.90;;;;;;4953166;28;20054;-72
2022/11/07 04:52:31;;;;;;;12.07;4.47;;;10.80;99.90;;;;;;4953609;28;20495;-72
2022/11/07 04:54:56;;;;;;;13.05;4.47;;;10.80;99.90;;;;;;4953484;28;20053;-72
2022/11/07 04:57:22;;;;;;;12.85;4.53;;;10.80;99.90;;;;;;4954640;28;20463;-72
2022/11/07 04:59:47;;;;;;;15.40;4.97;;;10.70;99.90;;;;;;4938070;29;20065;-72
2022/11/07 05:02:13;;;;;;;12.32;4.60;;;10.70;99.90;;;;;;4953601;28;20490;-72
2022/11/07 05:04:39;;;;;;;15.82;5.07;;;10.70;99.90;;;;;;4952832;28;20485;-72
2022/11/07 05:07:06;;;;;;;16.33;5.03;;;10.70;99.90;;;;;;4956750;28;20406;-72
2022/11/07 05:09:33;;;;;;;13.40;4.53;;;10.70;99.90;;;;;;4956607;28;20051;-72
2022/11/07 05:11:59;;;;;;;12.48;4.65;;;10.60;99.90;;;;;;4956043;28;20055;-72
2022/11/07 05:14:25;;;;;;;14.13;4.80;;;10.60;99.90;;;;;;4955962;28;20455;-72
2022/11/07 05:16:53;;;;;;;11.85;5.15;;;10.70;99.90;;;;;;4957954;28;20091;-71
2022/11/07 05:19:19;;;;;;;19.25;5.47;;;10.60;99.90;;;;;;4958001;28;20117;-72
2022/11/07 05:21:45;;;;;;;13.75;5.38;;;10.60;99.90;;;;;;4960576;28;20055;-72
2022/11/07 05:24:12;;;;;;;14.77;5.60;;;10.60;99.90;;;;;;4940996;29;20491;-73
2022/11/07 05:26:38;;;;;;;12.82;5.15;;;10.60;99.90;;;;;;4950908;28;20044;-72
2022/11/07 05:29:05;;;;;;;11.73;5.30;;;10.60;99.90;;;;;;4948001;28;20054;-72
2022/11/07 05:31:31;;;;;;;12.40;5.25;;;10.60;99.90;;;;;;4957279;28;20059;-72
2022/11/07 05:33:56;;;;;;;13.95;5.38;;;10.50;99.90;;;;;;4949368;28;20137;-72
2022/11/07 05:36:23;;;;;;;13.13;5.28;;;10.60;99.90;;;;;;4951618;28;20055;-73
2022/11/07 05:38:51;;;;;;;13.35;5.40;;;10.60;99.90;;;;;;4956673;28;20058;-72
2022/11/07 05:41:18;;;;;;;13.40;5.07;;;10.60;99.90;;;;;;4956252;29;20071;-73
2022/11/07 05:43:44;;;;;;;14.05;5.53;;;10.70;99.90;;;;;;4955354;28;20384;-72
2022/11/07 05:46:10;;;;;;;13.50;5.10;;;10.60;99.90;;;;;;4958343;28;20061;-72
2022/11/07 05:48:36;;;;;;;12.98;4.78;;;10.60;99.90;;;;;;4971791;28;20551;-72
2022/11/07 05:51:04;;;;;;;15.02;5.25;;;10.60;99.90;;;;;;4951286;28;20059;-73
2022/11/07 05:53:29;;;;;;;13.82;5.43;;;10.60;99.90;;;;;;4969104;28;20051;-72
2022/11/07 05:55:55;;;;;;;13.93;5.15;;;10.60;99.90;;;;;;4954463;28;20051;-73
2022/11/07 05:58:22;;;;;;;13.60;5.28;;;10.60;99.90;;;;;;4938374;28;20388;-72
2022/11/07 06:00:48;;;;;;;16.30;5.50;;;10.60;99.90;;;;;;4934613;29;20307;-72
2022/11/07 06:03:14;;;;;;;14.10;5.30;;;10.60;99.90;;;;;;4953003;28;20407;-72
2022/11/07 06:05:41;;;;;;;15.77;5.57;;;10.70;99.90;;;;;;4937939;29;20051;-72
2022/11/07 06:08:09;;;;;;;14.63;5.65;;;10.70;99.90;;;;;;4957289;28;20055;-72
2022/11/07 06:10:37;;;;;;;14.35;5.38;;;10.70;99.90;;;;;;4971212;28;20051;-72
2022/11/07 06:13:05;;;;;;;14.43;5.63;;;10.70;99.90;;;;;;4940386;28;20044;-73
2022/11/07 06:15:33;;;;;;;13.38;5.30;;;10.80;99.90;;;;;;4942441;28;20050;-73
2022/11/07 06:18:00;;;;;;;14.88;5.32;;;10.70;99.90;;;;;;4951402;28;20074;-72
2022/11/07 06:20:26;;;;;;;16.00;5.47;;;10.70;99.90;;;;;;4949027;28;20052;-73
2022/11/07 06:22:55;;;;;;;14.98;5.65;;;10.80;99.90;;;;;;4940037;28;20129;-73
2022/11/07 06:25:20;;;;;;;17.77;5.95;;;10.70;99.90;;;;;;4955517;28;20047;-73
2022/11/07 06:27:46;;;;;;;15.20;6.15;;;10.70;99.90;;;;;;4936143;28;20053;-72
2022/11/07 06:30:12;;;;;;;17.00;5.70;;;10.70;99.90;;;;;;4954988;28;20047;-72
2022/11/07 06:32:42;;;;;;;15.52;5.93;;;10.80;99.90;;;;;;4953694;29;20552;-72
2022/11/07 06:35:09;;;;;;;17.38;6.60;;;10.80;99.90;;;;;;4953241;29;20074;-72
2022/11/07 06:37:35;;;;;;;15.30;5.93;;;10.80;99.90;;;;;;4955041;28;20050;-72
2022/11/07 06:40:01;;;;;;;16.63;6.35;;;10.80;99.90;;;;;;4939706;29;20047;-72
2022/11/07 06:42:27;;;;;;;18.27;5.93;;;10.80;99.90;;;;;;4955766;28;20118;-72
2022/11/07 06:44:52;;;;;;;13.93;6.40;;;10.90;99.90;;;;;;4947844;29;20055;-72
2022/11/07 06:47:18;;;;;;;14.10;6.10;;;10.90;99.90;;;;;;4949495;29;20494;-72
2022/11/07 06:49:44;;;;;;;17.98;6.15;;;10.90;99.90;;;;;;4954837;29;20082;-72
2022/11/07 06:52:09;;;;;;;15.55;6.03;;;10.90;99.90;;;;;;4971429;28;20595;-72
2022/11/07 06:54:35;;;;;;;17.42;6.57;;;10.90;99.90;;;;;;4956392;28;20051;-72
2022/11/07 06:57:01;;;;;;;15.45;6.00;;;10.90;99.90;;;;;;4938521;28;20126;-72
2022/11/07 06:59:26;;;;;;;16.65;6.68;;;10.90;99.90;;;;;;4958519;28;20042;-72
2022/11/07 07:01:52;;;;;;;17.33;6.80;;;10.90;99.90;;;;;;4961629;28;20184;-72
2022/11/07 07:04:17;;;;;;;18.35;6.88;;;10.90;99.90;;;;;;4953673;29;20051;-72
2022/11/07 07:06:44;;;;;;;16.55;5.80;;;10.90;99.90;;;;;;4936198;28;20051;-73
2022/11/07 07:09:10;;;;;;;17.85;6.30;;;10.90;99.90;;;;;;4935508;28;20411;-73
2022/11/07 07:11:36;;;;;;;17.35;6.18;;;10.90;99.90;;;;;;4955116;28;20048;-73
2022/11/07 07:14:03;;;;;;;15.55;5.53;;;11.00;99.90;;;;;;4953642;28;20050;-72
2022/11/07 07:16:29;;;;;;;16.40;5.57;;;11.00;99.90;;;;;;4934263;29;20059;-72
2022/11/07 07:18:55;;;;;;;15.48;5.95;;;11.10;99.90;;;;;;4970644;28;20123;-72
2022/11/07 07:21:20;;;;;;;16.30;5.68;;;11.10;99.90;;;;;;4937515;29;20105;-72
2022/11/07 07:23:46;;;;;;;19.05;5.60;;;11.20;99.90;;;;;;4951832;28;20039;-73
2022/11/07 07:26:13;;;;;;;14.55;5.60;;;11.10;99.90;;;;;;4970511;28;20047;-72
2022/11/07 07:28:39;;;;;;;14.68;5.78;;;11.10;99.90;;;;;;4938667;29;20047;-72
2022/11/07 07:31:23;;;;;;;16.50;5.53;;;11.20;99.90;;;;;;4937626;28;20057;-72
2022/11/07 07:33:49;;;;;;;15.10;5.45;;;11.20;99.90;;;;;;4965373;28;20051;-72
2022/11/07 07:36:15;;;;;;;16.17;5.60;;;11.20;99.90;;;;;;4938305;29;20059;-73
2022/11/07 07:38:41;;;;;;;19.10;5.63;;;11.20;99.90;;;;;;4953982;28;20051;-72
2022/11/07 07:41:07;;;;;;;17.50;5.70;;;11.30;99.90;;;;;;4974293;28;20043;-72
2022/11/07 07:43:33;;;;;;;16.52;5.38;;;11.30;99.90;;;;;;4957328;28;20044;-72
2022/11/07 07:46:05;;;;;;;16.38;5.25;;;11.30;99.90;;;;;;4954612;29;20051;-72
2022/11/07 07:48:32;;;;;;;18.58;5.45;;;11.40;99.90;;;;;;4953341;29;20085;-72
2022/11/07 07:50:57;;;;;;;15.20;5.13;;;11.50;99.90;;;;;;4954643;29;20061;-72
2022/11/07 07:53:23;;;;;;;17.20;5.32;;;11.50;99.90;;;;;;4974103;28;20047;-72
2022/11/07 07:55:49;;;;;;;15.65;5.45;;;11.50;99.90;;;;;;4954579;28;20043;-71
2022/11/07 07:58:15;;;;;;;15.82;5.18;;;11.60;99.90;;;;;;4954151;29;20051;-72
2022/11/07 08:00:41;;;;;;;16.35;5.20;;;11.60;99.90;;;;;;4953565;29;20047;-72
2022/11/07 08:03:10;;;;;;;18.73;5.25;;;11.60;99.90;;;;;;4953891;28;20388;-72
2022/11/07 08:05:36;;;;;;;15.38;4.80;;;11.60;99.90;;;;;;4949800;28;20078;-72
2022/11/07 08:08:02;;;;;;;15.40;5.10;;;11.60;99.90;;;;;;4951083;29;20055;-73
2022/11/07 08:10:28;;;;;;;17.85;5.10;;;11.60;99.90;;;;;;4961080;28;20051;-72
2022/11/07 08:12:54;;;;;;;18.83;5.30;;;11.60;99.90;;;;;;4941937;28;20046;-73
2022/11/07 08:15:20;;;;;;;13.15;4.80;;;11.60;99.90;;;;;;4943236;28;20407;-73
2022/11/07 08:17:46;;;;;;;20.10;5.10;;;11.70;99.90;;;;;;4944065;28;20130;-72
2022/11/07 08:20:15;;;;;;;15.63;4.78;;;11.70;99.90;;;;;;4960766;28;20547;-72
2022/11/07 08:22:41;;;;;;;13.95;4.68;;;11.70;99.90;;;;;;4949262;28;20134;-74
2022/11/07 08:25:08;;;;;;;13.88;4.75;;;11.80;99.90;;;;;;4948338;28;20369;-73
2022/11/07 08:27:34;;;;;;;18.77;4.82;;;11.80;99.90;;;;;;4943180;28;20058;-73
2022/11/07 08:30:01;;;;;;;16.83;4.63;;;11.80;99.90;;;;;;4935189;29;20055;-72
2022/11/07 08:32:27;;;;;;;18.20;4.97;;;11.80;99.90;;;;;;4947049;29;20043;-72
2022/11/07 08:34:53;;;;;;;16.05;4.47;;;11.80;99.90;;;;;;4944988;28;20399;-72
2022/11/07 08:37:19;;;;;;;15.77;4.80;;;12.20;99.90;;;;;;4911315;28;20050;-72
2022/11/07 08:39:45;;;;;;;17.50;4.97;;;11.90;99.90;;;;;;4971310;28;20054;-72
2022/11/07 08:42:11;;;;;;;14.07;4.68;;;11.90;99.90;;;;;;4955169;28;20066;-73
2022/11/07 08:44:37;;;;;;;15.98;4.50;;;11.90;99.90;;;;;;4951643;28;20126;-72
2022/11/07 08:47:03;;;;;;;15.32;4.78;;;11.90;99.90;;;;;;4950816;28;20117;-72
2022/11/07 08:49:29;;;;;;;18.05;4.90;;;12.00;99.90;;;;;;4968572;28;20505;-72
2022/11/07 08:51:55;;;;;;;13.20;4.50;;;12.10;99.90;;;;;;4956604;28;20043;-74
2022/11/07 08:54:21;;;;;;;15.15;4.07;;;12.10;99.90;;;;;;4968825;28;20062;-73
2022/11/07 08:56:47;;;;;;;15.30;4.55;;;12.20;99.90;;;;;;4961524;28;20125;-73
2022/11/07 08:59:14;;;;;;;16.50;4.43;;;12.20;99.90;;;;;;4955950;28;20059;-73
2022/11/07 09:01:39;;;;;;;15.35;4.10;;;12.20;99.90;;;;;;4963151;28;20050;-73
2022/11/07 09:04:05;;;;;;;14.20;4.38;;;12.20;99.90;;;;;;4952710;28;20051;-72
2022/11/07 09:06:31;;;;;;;14.68;4.30;;;12.20;99.90;;;;;;4952920;28;20054;-72
2022/11/07 09:08:58;;;;;;;16.50;4.35;;;12.30;99.90;;;;;;4956638;28;20462;-72
2022/11/07 09:11:24;;;;;;;16.13;4.80;;;12.20;99.90;;;;;;4969314;28;20058;-72
2022/11/07 09:13:52;;;;;;;18.17;4.30;;;12.20;99.90;;;;;;4956910;28;20498;-73
2022/11/07 09:16:18;;;;;;;16.10;4.15;;;12.30;99.90;;;;;;4951618;28;20067;-74
2022/11/07 09:18:45;;;;;;;15.60;4.30;;;12.30;99.90;;;;;;4967323;28;20098;-73
2022/11/07 09:21:11;;;;;;;14.90;4.07;;;12.30;99.90;;;;;;4949828;28;20054;-73
2022/11/07 09:23:37;;;;;;;16.08;4.25;;;12.30;99.90;;;;;;4969097;28;20050;-73
2022/11/07 09:26:02;;;;;;;15.57;4.18;;;12.30;99.90;;;;;;4964922;28;20059;-73
2022/11/07 09:28:28;;;;;;;15.52;4.28;;;12.40;99.90;;;;;;4933096;28;20083;-73
2022/11/07 09:30:55;;;;;;;14.77;4.00;;;12.40;99.90;;;;;;4974056;28;20487;-73
2022/11/07 09:33:22;;;;;;;14.73;4.10;;;12.40;99.90;;;;;;4954688;28;20051;-73
2022/11/07 09:35:48;;;;;;;14.82;4.05;;;12.40;99.90;;;;;;4959835;28;20046;-73
2022/11/07 09:38:15;;;;;;;13.60;3.88;;;12.50;99.90;;;;;;4967261;28;20042;-73
2022/11/07 09:40:53;;;;;;;14.45;4.10;;;12.50;99.90;;;;;;4954478;28;20463;-73
2022/11/07 09:43:18;;;;;;;11.73;3.78;;;12.50;99.90;;;;;;4970973;28;20133;-73
2022/11/07 09:46:10;;;;;;;12.38;3.50;;;12.60;99.90;;;;;;4958034;28;20134;-74
2022/11/07 09:48:43;;;;;;;16.55;3.90;;;12.60;99.90;;;;;;4969005;28;20043;-73
2022/11/07 09:51:14;;;;;;;12.57;3.70;;;12.60;99.90;;;;;;4968613;28;20053;-73
2022/11/07 09:53:46;;;;;;;12.45;3.80;;;12.70;99.90;;;;;;4966978;28;20081;-73
2022/11/07 09:56:13;;;;;;;14.48;4.05;;;12.70;99.90;;;;;;4968986;28;20475;-74
2022/11/07 09:58:45;;;;;;;17.80;4.00;;;12.70;99.90;;;;;;4954239;28;20054;-73
2022/11/07 10:01:14;;;;;;;17.70;4.30;;;12.70;99.90;;;;;;4984517;28;20562;-73
2022/11/07 10:03:41;;;;;;;14.30;4.03;;;12.70;99.90;;;;;;4958440;28;20062;-73
2022/11/07 10:06:23;;;;;;;16.38;4.20;;;12.80;99.90;;;;;;4957225;28;20130;-73
2022/11/07 10:09:00;;;;;;;14.15;4.18;;;12.80;99.90;;;;;;4970048;28;20442;-73
2022/11/07 10:11:42;;;;;;;14.77;3.83;;;12.80;99.90;;;;;;4970661;28;20058;-73
2022/11/07 10:14:37;;;;;;;16.00;4.15;;;12.80;99.90;;;;;;4963492;28;20075;-73
2022/11/07 10:17:40;;;;;;;12.55;3.88;;;12.90;99.90;;;;;;4945682;28;20051;-73
2022/11/07 10:20:35;;;;;;;14.50;4.50;;;12.80;99.90;;;;;;4971863;28;20058;-74
2022/11/07 10:23:32;;;;;;;14.13;4.53;;;12.80;99.90;;;;;;4979862;28;20530;-72
2022/11/07 10:26:11;;;;;;;13.35;4.28;;;12.70;99.90;;;;;;4959387;28;20054;-73
2022/11/07 10:28:52;;;;;;;13.48;4.45;;;12.70;99.90;;;;;;4986013;28;20499;-73
2022/11/07 10:31:18;;;;;;;11.93;4.03;;;12.70;99.90;;;;;;4941125;28;20051;-72
2022/11/07 10:34:22;;;;;;;14.52;4.32;;;12.70;99.90;;;;;;4954930;28;20055;-73
2022/11/07 10:36:48;;;;;;;14.75;4.25;;;12.80;99.90;;;;;;4979110;28;20043;-73
2022/11/07 10:39:16;;;;;;;15.65;4.40;;;12.90;99.90;;;;;;4963888;28;20055;-73
2022/11/07 10:41:58;;;;;;;12.27;3.85;;;12.90;99.90;;;;;;4962081;28;20118;-72
2022/11/07 10:44:25;;;;;;;;;;;13.00;99.90;;;;;;4971767;28;20504;-73
2022/11/07 10:46:51;;;;;;;13.82;3.47;;;13.00;99.90;;;;;;4963095;28;20060;-73
2022/11/07 10:49:26;;;;;;;15.13;3.58;;;13.20;99.90;;;;;;4959316;28;20077;-73
2022/11/07 10:51:54;;;;;;;9.52;3.22;;;13.20;99.90;;;;;;4965978;28;20054;-72
2022/11/07 10:54:28;;;;;;;11.75;3.30;;;13.30;99.90;;;;;;4962189;28;20510;-73
2022/11/07 10:57:10;;;;;;;13.43;3.75;;;13.40;99.90;;;;;;4961304;28;20194;-73
2022/11/07 10:59:40;;;;;;;13.82;3.60;;;13.50;99.90;;;;;;4961198;28;20079;-73
2022/11/07 11:02:20;;;;;;;14.80;3.60;;;13.50;99.90;;;;;;4942766;28;20066;-73
2022/11/07 11:04:53;;;;;;;12.68;3.38;;;13.60;99.90;;;;;;4959229;28;20043;-73
2022/11/07 11:07:20;;;;;;;13.63;3.47;;;13.60;99.90;;;;;;4978212;28;20075;-75
2022/11/07 11:09:53;;;;;;;14.20;3.70;;;13.60;99.90;;;;;;4958580;28;20047;-73
2022/11/07 11:12:26;;;;;;;11.27;3.50;;;13.60;99.90;;;;;;4939171;28;20051;-73
2022/11/07 11:15:26;;;;;;;12.68;3.35;;;13.60;99.90;;;;;;4963638;28;20495;-74
2022/11/07 11:18:01;;;;;;;13.52;3.70;;;13.80;99.90;;;;;;4951223;28;20054;-74
2022/11/07 11:20:41;;;;;;;14.82;3.80;;;13.80;99.90;;;;;;4958430;28;20126;-73
2022/11/07 11:23:18;;;;;;;12.95;3.60;;;13.80;99.90;;;;;;4971898;28;20074;-72
2022/11/07 11:25:46;;;;;;;16.55;3.63;;;13.90;99.90;;;;;;4965399;28;20047;-73
2022/11/07 11:28:37;;;;;;;14.25;3.60;;;13.80;99.90;;;;;;4963268;28;20043;-72
2022/11/07 11:31:10;;;;;;;13.73;4.05;;;13.80;99.90;;;;;;4971349;28;20131;-72
2022/11/07 11:33:43;;;;;;;12.27;3.55;;;13.80;99.90;;;;;;4967310;28;20379;-73
2022/11/07 11:36:23;;;;;;;13.68;3.95;;;13.80;99.90;;;;;;4983862;28;20050;-72
2022/11/07 11:38:54;;;;;;;14.68;3.65;;;13.80;99.90;;;;;;4970247;28;20057;-72
2022/11/07 11:41:43;;;;;;;12.55;3.90;;;13.80;99.90;;;;;;4948718;28;20039;-72
2022/11/07 11:44:18;;;;;;;12.10;3.83;;;13.90;99.90;;;;;;4985430;28;20113;-73
2022/11/07 11:47:08;;;;;;;13.52;3.75;;;13.90;99.90;;;;;;4982997;28;20105;-72
2022/11/07 11:49:58;;;;;;;16.08;4.05;;;14.00;99.90;;;;;;4965689;28;20054;-73
2022/11/07 11:52:24;;;;;;;13.32;3.90;;;14.00;99.90;;;;;;4963517;28;20523;-74
2022/11/07 11:54:53;;;;;;;14.10;3.70;;;14.00;99.90;;;;;;4967537;28;20070;-74
2022/11/07 11:57:31;;;;;;;13.05;3.70;;;14.00;99.90;;;;;;4978968;28;20114;-72
2022/11/07 12:00:08;;;;;;;14.57;3.40;;;14.00;99.90;;;;;;4959377;28;20123;-73
2022/11/07 12:03:16;;;;;;;14.20;3.80;;;14.00;99.90;;;;;;4982362;28;20046;-73
2022/11/07 12:05:56;;;;;;;13.82;3.67;;;13.90;99.90;;;;;;4969236;28;20053;-73
2022/11/07 12:08:40;;;;;;;15.00;3.97;;;13.90;99.90;;;;;;4976880;28;20546;-73
2022/11/07 12:11:38;;;;;;;11.75;3.58;;;13.90;99.90;;;;;;4952518;28;20047;-73
2022/11/07 12:14:31;;;;;;;13.45;3.70;;;13.80;99.90;;;;;;4931872;28;20052;-73
2022/11/07 12:17:19;;;;;;;12.15;3.50;;;13.90;99.90;;;;;;4951392;28;20063;-72
2022/11/07 12:20:02;;;;;;;14.48;4.03;;;13.90;99.90;;;;;;4956419;28;20120;-74
2022/11/07 12:22:47;;;;;;;;;;;13.90;99.90;;;;;;4932550;28;20060;-73
2022/11/07 12:25:29;;;;;;;13.45;3.53;;;14.00;99.90;;;;;;4953389;28;19926;-72
2022/11/07 12:28:29;;;;;;;13.13;3.50;;;14.00;99.90;;;;;;4952580;28;20062;-73
2022/11/07 12:31:10;;;;;;;13.65;3.58;;;14.00;99.90;;;;;;4956524;28;20114;-72
2022/11/07 12:34:05;;;;;;;11.75;3.95;;;14.00;99.90;;;;;;4961539;28;20558;-72
2022/11/07 12:37:14;;;;;;;11.60;3.70;;;14.00;99.90;;;;;;4965634;28;20118;-73
2022/11/07 12:39:58;;;;;;;15.52;3.90;;;14.10;99.90;;;;;;4920951;28;21171;-72
2022/11/07 12:42:30;;;;;;;11.75;3.50;;;14.10;99.90;;;;;;4962434;28;20439;-72
2022/11/07 12:45:22;;;;;;;13.25;3.72;;;14.10;99.90;;;;;;4955867;28;20046;-72
2022/11/07 12:48:16;;;;;;;12.95;3.63;;;14.20;99.90;;;;;;4957686;28;20050;-72
2022/11/07 12:51:26;;;;;;;14.20;3.97;;;14.20;99.90;;;;;;4960919;28;20088;-72
2022/11/07 12:54:19;;;;;;;10.02;3.58;;;14.20;99.90;;;;;;4967654;28;20110;-74
2022/11/07 12:56:47;;;;;;;12.02;3.75;;;14.30;99.90;;;;;;4954621;28;20062;-72
2022/11/07 12:59:30;;;;;;;14.15;3.88;;;14.30;99.90;;;;;;4967320;28;20059;-72
2022/11/07 13:02:22;;;;;;;12.35;3.88;;;14.30;99.90;;;;;;4983897;28;20058;-72
2022/11/07 13:05:36;;;;;;;12.83;3.40;;;14.30;99.90;;;;;;4967733;28;20090;-72